Time;durP1;ratioP1;P1;durP2;ratioP2;P2;SDS_P1;SDS_P2;PMS_P1;PMS_P2;Temp;Humidity;BMP_temperature;BMP_pressure;BME280_temperature;BME280_humidity;BME280_pressure;Samples;Min_cycle;Max_cycle;Signal;HPM_P1;HPM_P2
2022/03/05 00:00:35;;;;;;;10.80;6.63;;;;;;;;;;5051726;28;20177;-73
2022/03/05 00:03:00;;;;;;;13.20;7.50;;;;;;;;;;5032141;28;20170;-73
2022/03/05 00:05:26;;;;;;;17.30;7.27;;;;;;;;;;5036422;28;20285;-73
2022/03/05 00:07:51;;;;;;;13.10;7.70;;;;;;;;;;5032909;28;20248;-74
2022/03/05 00:10:18;;;;;;;14.10;7.80;;;;;;;;;;5031469;28;20276;-73
2022/03/05 00:12:44;;;;;;;14.13;7.43;;;;;;;;;;5049545;28;20186;-73
2022/03/05 00:15:09;;;;;;;11.13;6.87;;;;;;;;;;5049371;28;20174;-73
2022/03/05 00:17:34;;;;;;;13.70;7.83;;;;;;;;;;5032225;28;20201;-74
2022/03/05 00:19:59;;;;;;;9.97;7.43;;;;;;;;;;5036653;28;20209;-73
2022/03/05 00:22:24;;;;;;;12.03;6.73;;;;;;;;;;5051387;28;20219;-74
2022/03/05 00:24:49;;;;;;;9.50;6.80;;;;;;;;;;5050883;28;20166;-74
2022/03/05 00:27:16;;;;;;;13.63;7.03;;;;;;;;;;5030880;28;20429;-73
2022/03/05 00:29:41;;;;;;;9.80;5.80;;;;;;;;;;5041634;28;20163;-74
2022/03/05 00:32:06;;;;;;;9.87;6.37;;;;;;;;;;5030440;28;20182;-74
2022/03/05 00:34:32;;;;;;;9.43;7.40;;;;;;;;;;5035972;28;20185;-74
2022/03/05 00:36:57;;;;;;;10.60;6.67;;;;;;;;;;5037845;28;20256;-74
2022/03/05 00:39:22;;;;;;;9.27;6.30;;;;;;;;;;5030916;28;20213;-74
2022/03/05 00:41:47;;;;;;;9.57;6.37;;;;;;;;;;5048271;28;20219;-73
2022/03/05 00:44:13;;;;;;;9.93;6.87;;;;;;;;;;5049025;28;20184;-73
2022/03/05 00:46:38;;;;;;;11.30;6.67;;;;;;;;;;5040766;28;20265;-74
2022/03/05 00:49:03;;;;;;;9.17;5.80;;;;;;;;;;5037952;28;20185;-73
2022/03/05 00:51:29;;;;;;;9.07;6.00;;;;;;;;;;5045801;28;20228;-73
2022/03/05 00:53:54;;;;;;;11.03;6.30;;;;;;;;;;5034918;28;20247;-73
2022/03/05 00:56:19;;;;;;;9.63;6.10;;;;;;;;;;5039737;28;20209;-73
2022/03/05 00:58:44;;;;;;;11.23;6.20;;;;;;;;;;5056849;28;20204;-73
2022/03/05 01:01:09;;;;;;;10.37;5.80;;;;;;;;;;5058062;28;20186;-73
2022/03/05 01:03:35;;;;;;;8.67;6.20;;;;;;;;;;5035733;28;20198;-73
2022/03/05 01:06:00;;;;;;;9.17;6.03;;;;;;;;;;5038116;28;20178;-73
2022/03/05 01:08:25;;;;;;;10.60;6.27;;;;;;;;;;5034581;28;20257;-73
2022/03/05 01:10:51;;;;;;;11.13;5.97;;;;;;;;;;5036226;28;20181;-73
2022/03/05 01:13:16;;;;;;;13.63;5.97;;;;;;;;;;5055374;28;20177;-74
2022/03/05 01:15:41;;;;;;;10.10;5.43;;;;;;;;;;5057868;28;20211;-73
2022/03/05 01:18:06;;;;;;;8.30;5.90;;;;;;;;;;5038161;28;20291;-73
2022/03/05 01:20:32;;;;;;;9.67;5.30;;;;;;;;;;5053718;28;20227;-73
2022/03/05 01:22:57;;;;;;;9.70;5.77;;;;;;;;;;5035192;28;20174;-73
2022/03/05 01:25:22;;;;;;;8.97;5.67;;;;;;;;;;5032475;28;20182;-73
2022/03/05 01:27:47;;;;;;;6.77;4.70;;;;;;;;;;5053198;28;20574;-74
2022/03/05 01:30:13;;;;;;;8.33;5.37;;;;;;;;;;5030129;28;20180;-74
2022/03/05 01:32:38;;;;;;;8.87;5.67;;;;;;;;;;5037125;28;20179;-73
2022/03/05 01:35:04;;;;;;;6.87;5.40;;;;;;;;;;5051976;28;20181;-74
2022/03/05 01:37:29;;;;;;;8.47;5.17;;;;;;;;;;5053545;28;20199;-74
2022/03/05 01:39:54;;;;;;;8.47;5.27;;;;;;;;;;5035047;28;20288;-74
2022/03/05 01:42:20;;;;;;;8.77;5.13;;;;;;;;;;5036885;28;20178;-73
2022/03/05 01:44:45;;;;;;;9.40;5.00;;;;;;;;;;5038152;28;20202;-74
2022/03/05 01:47:11;;;;;;;10.23;6.23;;;;;;;;;;5052727;28;20175;-74
2022/03/05 01:49:36;;;;;;;8.70;5.07;;;;;;;;;;5057279;28;20217;-74
2022/03/05 01:52:01;;;;;;;8.90;5.40;;;;;;;;;;5051812;28;20182;-73
2022/03/05 01:54:27;;;;;;;9.03;5.03;;;;;;;;;;5036158;28;20251;-74
2022/03/05 01:56:54;;;;;;;9.83;5.70;;;;;;;;;;5056824;28;20184;-74
2022/03/05 01:59:19;;;;;;;7.10;5.10;;;;;;;;;;5053141;28;20234;-74
2022/03/05 02:01:44;;;;;;;7.93;4.67;;;;;;;;;;5039502;28;20175;-74
2022/03/05 02:04:09;;;;;;;7.80;5.10;;;;;;;;;;5055064;28;20189;-75
2022/03/05 02:06:34;;;;;;;6.23;4.97;;;;;;;;;;5044085;28;20170;-74
2022/03/05 02:09:00;;;;;;;5.83;4.53;;;;;;;;;;5043550;28;20234;-74
2022/03/05 02:11:26;;;;;;;8.40;4.40;;;;;;;;;;5051948;28;20260;-75
2022/03/05 02:13:52;;;;;;;9.17;5.10;;;;;;;;;;5052936;28;20180;-75
2022/03/05 02:16:18;;;;;;;9.43;5.27;;;;;;;;;;5033620;28;20184;-75
2022/03/05 02:18:44;;;;;;;7.87;4.70;;;;;;;;;;5037379;28;20212;-75
2022/03/05 02:21:10;;;;;;;8.87;4.70;;;;;;;;;;5051804;28;20255;-74
2022/03/05 02:23:35;;;;;;;7.53;4.83;;;;;;;;;;5034007;28;20274;-75
2022/03/05 02:26:02;;;;;;;7.00;4.77;;;;;;;;;;5050435;28;20255;-75
2022/03/05 02:28:29;;;;;;;9.67;5.20;;;;;;;;;;5032351;28;20182;-75
2022/03/05 02:30:55;;;;;;;5.90;4.43;;;;;;;;;;5034503;28;20195;-74
2022/03/05 02:33:20;;;;;;;7.70;4.40;;;;;;;;;;5036726;28;20187;-74
2022/03/05 02:35:45;;;;;;;5.33;4.10;;;;;;;;;;5036395;28;20189;-74
2022/03/05 02:38:15;;;;;;;8.70;4.73;;;;;;;;;;5033660;28;20204;-74
2022/03/05 02:40:41;;;;;;;8.70;4.93;;;;;;;;;;5050437;28;20183;-74
2022/03/05 02:43:06;;;;;;;6.60;4.60;;;;;;;;;;5053974;28;20179;-74
2022/03/05 02:45:31;;;;;;;5.77;4.07;;;;;;;;;;5033012;28;20183;-74
2022/03/05 02:47:57;;;;;;;7.70;4.60;;;;;;;;;;5035625;28;20275;-74
2022/03/05 02:50:22;;;;;;;7.73;4.90;;;;;;;;;;5034918;28;20277;-74
2022/03/05 02:52:47;;;;;;;7.67;4.60;;;;;;;;;;5043681;28;20174;-74
2022/03/05 02:55:12;;;;;;;7.37;5.27;;;;;;;;;;5031971;28;20298;-74
2022/03/05 02:57:37;;;;;;;7.37;4.40;;;;;;;;;;5034856;28;20195;-74
2022/03/05 03:00:04;;;;;;;5.00;4.00;;;;;;;;;;5050089;28;20182;-74
2022/03/05 03:02:29;;;;;;;6.67;4.33;;;;;;;;;;5052645;28;20183;-74
2022/03/05 03:04:54;;;;;;;7.70;4.20;;;;;;;;;;5035990;28;20544;-74
2022/03/05 03:07:20;;;;;;;6.40;4.00;;;;;;;;;;5050209;28;20237;-74
2022/03/05 03:09:45;;;;;;;7.07;4.63;;;;;;;;;;5049201;28;20470;-73
2022/03/05 03:12:10;;;;;;;9.03;5.20;;;;;;;;;;5030935;28;20171;-73
2022/03/05 03:14:35;;;;;;;7.33;5.10;;;;;;;;;;5016676;28;20258;-74
2022/03/05 03:17:00;;;;;;;7.90;5.47;;;;;;;;;;5035227;28;20263;-74
2022/03/05 03:19:25;;;;;;;6.67;4.43;;;;;;;;;;5026602;28;20296;-74
2022/03/05 03:21:51;;;;;;;8.10;4.17;;;;;;;;;;5034370;28;20173;-73
2022/03/05 03:24:16;;;;;;;6.13;4.60;;;;;;;;;;5051482;28;20190;-74
2022/03/05 03:26:41;;;;;;;7.53;4.40;;;;;;;;;;5041094;28;20196;-74
2022/03/05 03:29:06;;;;;;;6.60;4.57;;;;;;;;;;5027288;28;20211;-73
2022/03/05 03:31:31;;;;;;;6.83;5.17;;;;;;;;;;5049744;28;20182;-73
2022/03/05 03:33:57;;;;;;;9.37;4.30;;;;;;;;;;5043174;28;20213;-74
2022/03/05 03:36:22;;;;;;;9.17;5.37;;;;;;;;;;5019192;28;20186;-73
2022/03/05 03:38:47;;;;;;;9.40;5.00;;;;;;;;;;5044009;28;20285;-74
2022/03/05 03:41:12;;;;;;;7.47;4.17;;;;;;;;;;5030213;28;20176;-73
2022/03/05 03:43:37;;;;;;;8.27;5.30;;;;;;;;;;5044380;28;20178;-74
2022/03/05 03:46:03;;;;;;;10.10;5.50;;;;;;;;;;5039474;28;20274;-73
2022/03/05 03:48:28;;;;;;;10.50;5.40;;;;;;;;;;5032897;28;20192;-73
2022/03/05 03:50:53;;;;;;;8.97;5.07;;;;;;;;;;5039537;28;20190;-73
2022/03/05 03:53:18;;;;;;;9.13;5.50;;;;;;;;;;5038562;28;20175;-73
2022/03/05 03:55:44;;;;;;;8.83;4.80;;;;;;;;;;5043742;28;20210;-73
2022/03/05 03:58:09;;;;;;;8.67;4.80;;;;;;;;;;5019305;28;20207;-73
2022/03/05 04:00:34;;;;;;;8.30;5.97;;;;;;;;;;5034074;28;20170;-73
2022/03/05 04:02:59;;;;;;;8.33;5.33;;;;;;;;;;5010211;28;20215;-74
2022/03/05 04:05:24;;;;;;;5.90;4.30;;;;;;;;;;5028947;28;20343;-73
2022/03/05 04:10:34;;;;;;;7.97;5.30;;;;;;;;;;5040953;28;20185;-73
2022/03/05 04:12:59;;;;;;;7.87;5.17;;;;;;;;;;5051209;28;20166;-73
2022/03/05 04:15:24;;;;;;;8.70;4.93;;;;;;;;;;5031979;28;20517;-73
2022/03/05 04:17:50;;;;;;;10.17;4.53;;;;;;;;;;5053110;28;20194;-73
2022/03/05 04:20:16;;;;;;;8.60;5.43;;;;;;;;;;5032633;28;20187;-74
2022/03/05 04:22:41;;;;;;;6.70;4.80;;;;;;;;;;5031034;28;20257;-74
2022/03/05 04:25:06;;;;;;;8.60;5.93;;;;;;;;;;5033898;28;20273;-73
2022/03/05 04:27:32;;;;;;;8.63;5.00;;;;;;;;;;5031366;28;20238;-73
2022/03/05 04:29:57;;;;;;;8.00;5.17;;;;;;;;;;5036808;28;20203;-73
2022/03/05 04:32:22;;;;;;;6.83;4.40;;;;;;;;;;5037909;28;20228;-74
2022/03/05 04:34:47;;;;;;;10.43;5.20;;;;;;;;;;5046420;28;20187;-74
2022/03/05 04:37:13;;;;;;;7.47;5.17;;;;;;;;;;5033900;28;20175;-73
2022/03/05 04:39:38;;;;;;;7.97;5.43;;;;;;;;;;5041599;28;20178;-73
2022/03/05 04:42:03;;;;;;;9.50;5.33;;;;;;;;;;5054704;28;20259;-73
2022/03/05 04:44:29;;;;;;;6.07;4.10;;;;;;;;;;5033856;28;20268;-73
2022/03/05 04:46:54;;;;;;;6.70;4.40;;;;;;;;;;5054595;28;20170;-73
2022/03/05 04:49:19;;;;;;;9.90;5.13;;;;;;;;;;5029486;28;20185;-73
2022/03/05 04:51:44;;;;;;;7.70;4.93;;;;;;;;;;5036422;28;20178;-73
2022/03/05 04:54:09;;;;;;;8.10;4.70;;;;;;;;;;5046919;28;20236;-74
2022/03/05 04:56:36;;;;;;;7.47;4.93;;;;;;;;;;5044003;28;20186;-73
2022/03/05 04:59:02;;;;;;;8.93;5.47;;;;;;;;;;5049387;28;20209;-73
2022/03/05 05:01:27;;;;;;;9.17;5.60;;;;;;;;;;5032972;28;20174;-73
2022/03/05 05:03:53;;;;;;;6.77;4.73;;;;;;;;;;5053501;28;20212;-73
2022/03/05 05:06:18;;;;;;;9.67;5.03;;;;;;;;;;5049520;28;20179;-73
2022/03/05 05:08:43;;;;;;;8.47;5.63;;;;;;;;;;5055872;28;20283;-73
2022/03/05 05:11:08;;;;;;;7.60;4.67;;;;;;;;;;5031597;28;20183;-73
2022/03/05 05:13:33;;;;;;;9.13;5.47;;;;;;;;;;5050450;28;20177;-73
2022/03/05 05:15:59;;;;;;;8.53;4.93;;;;;;;;;;5031694;28;20274;-74
2022/03/05 05:18:25;;;;;;;9.87;5.27;;;;;;;;;;5033583;28;20216;-73
2022/03/05 05:20:50;;;;;;;10.67;5.23;;;;;;;;;;5031059;28;20174;-73
2022/03/05 05:23:15;;;;;;;9.93;5.87;;;;;;;;;;5051078;28;20170;-73
2022/03/05 05:25:41;;;;;;;9.03;4.60;;;;;;;;;;5030427;28;20183;-73
2022/03/05 05:28:06;;;;;;;7.50;5.23;;;;;;;;;;5044421;28;20212;-73
2022/03/05 05:30:32;;;;;;;10.97;5.10;;;;;;;;;;5035596;28;20232;-73
2022/03/05 05:32:57;;;;;;;9.47;5.47;;;;;;;;;;5043971;28;20194;-74
2022/03/05 05:35:22;;;;;;;10.13;4.80;;;;;;;;;;5051710;28;20263;-73
2022/03/05 05:37:48;;;;;;;9.30;5.30;;;;;;;;;;5050910;28;20207;-73
2022/03/05 05:40:13;;;;;;;10.27;5.97;;;;;;;;;;5030722;28;20197;-73
2022/03/05 05:42:38;;;;;;;7.30;5.23;;;;;;;;;;5056238;28;20178;-73
2022/03/05 05:45:04;;;;;;;10.40;6.30;;;;;;;;;;5034238;28;20315;-73
2022/03/05 05:47:29;;;;;;;6.57;3.97;;;;;;;;;;5034095;28;20510;-74
2022/03/05 05:49:54;;;;;;;11.83;7.67;;;;;;;;;;5034687;28;20383;-74
2022/03/05 05:52:20;;;;;;;11.53;6.90;;;;;;;;;;5044887;28;20201;-73
2022/03/05 05:54:45;;;;;;;9.93;6.77;;;;;;;;;;5030191;28;20194;-73
2022/03/05 05:57:10;;;;;;;10.57;6.90;;;;;;;;;;5031697;28;20178;-74
2022/03/05 05:59:35;;;;;;;8.77;5.83;;;;;;;;;;5045606;28;20484;-74
2022/03/05 06:02:01;;;;;;;9.77;5.90;;;;;;;;;;5034230;28;20182;-74
2022/03/05 06:04:26;;;;;;;9.03;5.03;;;;;;;;;;5036828;28;20198;-73
2022/03/05 06:06:51;;;;;;;9.47;5.43;;;;;;;;;;5036523;28;20182;-74
2022/03/05 06:09:17;;;;;;;10.10;5.40;;;;;;;;;;5033700;28;20225;-73
2022/03/05 06:11:42;;;;;;;11.27;5.80;;;;;;;;;;5043912;28;20265;-73
2022/03/05 06:14:07;;;;;;;7.97;4.70;;;;;;;;;;5052521;28;20459;-74
2022/03/05 06:16:32;;;;;;;10.00;5.57;;;;;;;;;;5030004;28;20198;-74
2022/03/05 06:18:58;;;;;;;8.77;5.40;;;;;;;;;;5048245;28;20277;-74
2022/03/05 06:21:23;;;;;;;8.83;5.30;;;;;;;;;;5049553;28;20193;-73
2022/03/05 06:23:48;;;;;;;6.97;4.93;;;;;;;;;;5050318;28;20213;-74
2022/03/05 06:26:14;;;;;;;6.80;4.43;;;;;;;;;;5031290;28;20592;-74
2022/03/05 06:28:39;;;;;;;7.00;4.77;;;;;;;;;;5054610;28;20174;-73
2022/03/05 06:31:04;;;;;;;9.17;5.47;;;;;;;;;;5034089;28;20200;-74
2022/03/05 06:33:29;;;;;;;9.30;5.30;;;;;;;;;;5040679;28;20174;-74
2022/03/05 06:35:55;;;;;;;9.63;4.90;;;;;;;;;;5040131;28;20188;-74
2022/03/05 06:38:21;;;;;;;8.33;4.37;;;;;;;;;;5042122;28;20210;-75
2022/03/05 06:40:46;;;;;;;9.27;5.37;;;;;;;;;;5032247;28;20186;-80
2022/03/05 06:43:11;;;;;;;9.33;5.47;;;;;;;;;;5032152;28;20262;-80
2022/03/05 06:45:37;;;;;;;11.40;7.43;;;;;;;;;;5031587;28;20181;-80
2022/03/05 06:48:02;;;;;;;9.10;5.83;;;;;;;;;;5026471;28;20323;-80
2022/03/05 06:50:27;;;;;;;11.53;5.80;;;;;;;;;;5036353;28;20225;-80
2022/03/05 06:52:53;;;;;;;6.53;4.40;;;;;;;;;;5030919;28;20170;-80
2022/03/05 06:55:18;;;;;;;9.70;5.97;;;;;;;;;;5038113;28;20186;-80
2022/03/05 06:57:44;;;;;;;11.27;5.70;;;;;;;;;;5033382;28;20274;-80
2022/03/05 07:00:10;;;;;;;19.03;12.60;;;;;;;;;;5032984;28;20181;-81
2022/03/05 07:02:35;;;;;;;10.57;6.63;;;;;;;;;;5033365;28;20177;-79
2022/03/05 07:05:00;;;;;;;9.00;5.87;;;;;;;;;;5033211;28;20194;-80
2022/03/05 07:07:26;;;;;;;10.63;6.43;;;;;;;;;;5033077;28;20181;-80
2022/03/05 07:09:51;;;;;;;8.07;5.27;;;;;;;;;;5033697;28;20186;-80
2022/03/05 07:12:16;;;;;;;9.57;5.37;;;;;;;;;;5028468;28;20208;-81
2022/03/05 07:14:44;;;;;;;12.83;6.47;;;;;;;;;;5034243;28;20184;-80
2022/03/05 07:17:10;;;;;;;10.80;7.47;;;;;;;;;;5031632;28;20245;-80
2022/03/05 07:19:35;;;;;;;10.33;6.53;;;;;;;;;;5051765;28;20197;-81
2022/03/05 07:22:00;;;;;;;10.33;7.30;;;;;;;;;;5035456;28;20178;-80
2022/03/05 07:24:25;;;;;;;16.53;7.77;;;;;;;;;;5035317;28;20170;-82
2022/03/05 07:26:50;;;;;;;10.53;6.90;;;;;;;;;;5031532;28;20182;-82
2022/03/05 07:29:16;;;;;;;13.97;7.50;;;;;;;;;;5049737;28;20239;-82
2022/03/05 07:31:41;;;;;;;13.90;8.87;;;;;;;;;;5033471;28;20464;-81
2022/03/05 07:34:06;;;;;;;13.03;7.83;;;;;;;;;;5031676;28;20236;-80
2022/03/05 07:36:31;;;;;;;12.47;7.70;;;;;;;;;;5048281;28;20205;-80
2022/03/05 07:38:56;;;;;;;13.20;8.27;;;;;;;;;;5030300;28;20232;-80
2022/03/05 07:41:22;;;;;;;11.90;7.57;;;;;;;;;;5048486;28;20278;-80
2022/03/05 07:43:47;;;;;;;11.97;6.80;;;;;;;;;;5049564;28;20184;-80
2022/03/05 07:46:12;;;;;;;15.60;7.67;;;;;;;;;;5030211;28;20175;-80
2022/03/05 07:48:38;;;;;;;12.77;7.80;;;;;;;;;;5034767;28;20252;-79
2022/03/05 07:51:03;;;;;;;14.27;7.60;;;;;;;;;;5050356;28;20175;-79
2022/03/05 07:53:31;;;;;;;14.37;8.37;;;;;;;;;;5036719;28;20174;-79
2022/03/05 07:55:57;;;;;;;20.80;10.53;;;;;;;;;;5024726;28;20194;-78
2022/03/05 07:58:22;;;;;;;16.63;9.67;;;;;;;;;;5044571;28;20234;-78
2022/03/05 08:00:47;;;;;;;17.80;9.33;;;;;;;;;;5030541;28;20174;-78
2022/03/05 08:03:13;;;;;;;13.33;6.50;;;;;;;;;;5034356;28;20185;-78
2022/03/05 08:05:38;;;;;;;15.47;9.60;;;;;;;;;;5053284;28;20179;-77
2022/03/05 08:08:03;;;;;;;18.80;9.47;;;;;;;;;;5028362;28;20316;-77
2022/03/05 08:10:28;;;;;;;17.43;7.87;;;;;;;;;;5029667;28;20186;-77
2022/03/05 08:12:54;;;;;;;18.10;10.63;;;;;;;;;;5044353;28;20266;-77
2022/03/05 08:15:19;;;;;;;16.97;9.80;;;;;;;;;;5030429;28;20178;-78
2022/03/05 08:17:50;;;;;;;16.43;9.13;;;;;;;;;;5030318;28;20213;-77
2022/03/05 08:20:16;;;;;;;12.03;7.70;;;;;;;;;;5030593;28;20181;-78
2022/03/05 08:22:41;;;;;;;16.90;8.97;;;;;;;;;;5025461;28;20196;-78
2022/03/05 08:25:06;;;;;;;13.50;7.60;;;;;;;;;;5031360;28;20177;-78
2022/03/05 08:27:32;;;;;;;18.50;9.43;;;;;;;;;;5028807;28;20187;-78
2022/03/05 08:29:57;;;;;;;8.23;4.80;;;;;;;;;;5030587;28;20184;-78
2022/03/05 08:32:22;;;;;;;10.47;6.00;;;;;;;;;;5044917;28;20162;-78
2022/03/05 08:34:47;;;;;;;17.10;8.00;;;;;;;;;;5031349;28;20228;-78
2022/03/05 08:37:14;;;;;;;16.67;7.13;;;;;;;;;;5032126;28;20186;-78
2022/03/05 08:39:39;;;;;;;11.33;6.97;;;;;;;;;;5030905;28;20209;-79
2022/03/05 08:42:04;;;;;;;11.33;6.90;;;;;;;;;;5030972;28;20171;-76
2022/03/05 08:44:30;;;;;;;16.50;8.27;;;;;;;;;;5038996;28;20266;-79
2022/03/05 08:46:55;;;;;;;15.33;7.67;;;;;;;;;;5038357;28;20171;-79
2022/03/05 08:49:20;;;;;;;15.70;8.17;;;;;;;;;;5029002;28;20243;-79
2022/03/05 08:51:45;;;;;;;12.83;7.10;;;;;;;;;;5032252;28;20213;-79
2022/03/05 08:54:11;;;;;;;13.57;7.43;;;;;;;;;;5035752;28;20179;-79
2022/03/05 08:56:36;;;;;;;11.50;6.97;;;;;;;;;;5035309;28;20200;-79
2022/03/05 08:59:01;;;;;;;11.37;7.80;;;;;;;;;;5036806;28;20198;-80
2022/03/05 09:01:26;;;;;;;8.07;4.23;;;;;;;;;;5031371;28;20197;-80
2022/03/05 09:03:52;;;;;;;10.97;7.13;;;;;;;;;;5031254;28;20289;-81
2022/03/05 09:06:17;;;;;;;10.80;6.93;;;;;;;;;;5025111;28;20185;-80
2022/03/05 09:08:42;;;;;;;10.87;7.67;;;;;;;;;;5027219;28;20226;-81
2022/03/05 09:11:08;;;;;;;12.03;7.60;;;;;;;;;;5037105;28;20203;-80
2022/03/05 09:13:33;;;;;;;12.70;6.30;;;;;;;;;;5035761;28;20192;-80
2022/03/05 09:15:59;;;;;;;5.33;3.60;;;;;;;;;;5034950;28;20183;-80
2022/03/05 09:18:24;;;;;;;3.30;2.73;;;;;;;;;;5034838;28;20215;-79
2022/03/05 09:20:49;;;;;;;11.30;7.07;;;;;;;;;;5035535;28;20178;-79
2022/03/05 09:23:14;;;;;;;8.70;5.57;;;;;;;;;;5035534;28;20194;-78
2022/03/05 09:25:40;;;;;;;9.57;6.60;;;;;;;;;;5055497;28;20219;-78
2022/03/05 09:28:05;;;;;;;12.60;7.83;;;;;;;;;;5057799;28;20264;-78
2022/03/05 09:30:30;;;;;;;10.33;6.33;;;;;;;;;;5040555;28;20192;-78
2022/03/05 09:32:56;;;;;;;15.67;9.03;;;;;;;;;;5032897;28;20187;-78
2022/03/05 09:35:21;;;;;;;15.63;10.13;;;;;;;;;;5034700;28;20174;-78
2022/03/05 09:37:46;;;;;;;14.73;7.60;;;;;;;;;;5036193;28;20205;-78
2022/03/05 09:40:12;;;;;;;13.67;8.57;;;;;;;;;;5034221;28;20170;-78
2022/03/05 09:42:41;;;;;;;11.73;5.67;;;;;;;;;;5049512;28;20186;-78
2022/03/05 09:45:06;;;;;;;12.10;6.80;;;;;;;;;;5034342;28;20275;-77
2022/03/05 09:47:32;;;;;;;6.37;4.30;;;;;;;;;;5035462;28;20392;-77
2022/03/05 09:49:57;;;;;;;12.77;7.53;;;;;;;;;;5034025;28;20170;-78
2022/03/05 09:52:23;;;;;;;8.47;6.27;;;;;;;;;;5035283;28;20178;-77
2022/03/05 09:54:48;;;;;;;11.20;6.17;;;;;;;;;;5033475;28;20166;-77
2022/03/05 09:57:14;;;;;;;6.47;4.67;;;;;;;;;;5035602;28;20178;-77
2022/03/05 09:59:39;;;;;;;8.90;5.70;;;;;;;;;;5033496;28;20351;-77
2022/03/05 10:02:05;;;;;;;10.87;7.23;;;;;;;;;;5044183;28;20178;-77
2022/03/05 10:04:31;;;;;;;8.20;5.17;;;;;;;;;;5037788;28;20195;-77
2022/03/05 10:07:13;;;;;;;9.70;6.33;;;;;;;;;;5032918;28;20170;-77
2022/03/05 10:09:39;;;;;;;9.50;5.93;;;;;;;;;;5029862;28;20226;-76
2022/03/05 10:12:23;;;;;;;10.70;6.40;;;;;;;;;;5047962;28;20189;-76
2022/03/05 10:15:07;;;;;;;10.37;6.43;;;;;;;;;;5029212;28;20179;-76
2022/03/05 10:17:52;;;;;;;8.97;6.17;;;;;;;;;;5040721;28;20183;-76
2022/03/05 10:20:19;;;;;;;18.33;6.27;;;;;;;;;;5048222;28;20298;-76
2022/03/05 10:22:57;;;;;;;8.27;5.70;;;;;;;;;;5029571;28;20182;-76
2022/03/05 10:25:37;;;;;;;8.57;5.87;;;;;;;;;;5022919;28;20223;-76
2022/03/05 10:28:09;;;;;;;10.63;5.77;;;;;;;;;;5031066;28;20178;-76
2022/03/05 10:30:39;;;;;;;4.50;3.37;;;;;;;;;;5031751;28;20232;-76
2022/03/05 10:33:05;;;;;;;5.97;3.30;;;;;;;;;;5034244;28;20201;-76
2022/03/05 10:35:30;;;;;;;5.70;4.17;;;;;;;;;;5049188;28;20221;-76
2022/03/05 10:37:55;;;;;;;9.03;5.77;;;;;;;;;;5034637;28;20204;-76
2022/03/05 10:40:25;;;;;;;5.13;2.93;;;;;;;;;;5025683;28;20193;-75
2022/03/05 10:42:50;;;;;;;6.70;4.13;;;;;;;;;;5047216;28;20190;-76
2022/03/05 10:45:18;;;;;;;6.90;5.20;;;;;;;;;;5026992;28;20215;-76
2022/03/05 10:47:46;;;;;;;8.40;4.93;;;;;;;;;;5031341;28;20174;-76
2022/03/05 10:50:23;;;;;;;4.73;3.77;;;;;;;;;;5027302;28;20229;-75
2022/03/05 10:52:49;;;;;;;8.37;5.00;;;;;;;;;;5042563;28;20177;-75
2022/03/05 10:55:16;;;;;;;9.43;5.07;;;;;;;;;;5031609;28;20185;-75
2022/03/05 10:57:54;;;;;;;1.50;1.07;;;;;;;;;;5036467;28;20220;-75
2022/03/05 11:00:19;;;;;;;8.07;5.27;;;;;;;;;;5049302;28;20190;-75
2022/03/05 11:02:45;;;;;;;7.10;4.40;;;;;;;;;;5038425;28;20247;-75
2022/03/05 11:05:10;;;;;;;7.43;4.60;;;;;;;;;;5030361;28;20198;-75
2022/03/05 11:07:35;;;;;;;4.93;2.87;;;;;;;;;;5051338;28;20193;-75
2022/03/05 11:10:01;;;;;;;6.03;2.90;;;;;;;;;;5026391;28;20197;-75
2022/03/05 11:12:29;;;;;;;6.10;4.33;;;;;;;;;;5036276;28;20200;-75
2022/03/05 11:14:54;;;;;;;6.40;3.30;;;;;;;;;;5030482;28;20174;-75
2022/03/05 11:17:20;;;;;;;9.80;6.33;;;;;;;;;;5028907;28;20204;-75
2022/03/05 11:19:45;;;;;;;9.53;5.53;;;;;;;;;;5033841;28;20229;-75
2022/03/05 11:22:11;;;;;;;7.83;6.07;;;;;;;;;;5032201;28;20264;-76
2022/03/05 11:24:41;;;;;;;4.40;3.17;;;;;;;;;;5026715;28;20277;-75
2022/03/05 11:27:11;;;;;;;6.53;4.30;;;;;;;;;;5032494;28;20207;-75
2022/03/05 11:29:55;;;;;;;7.53;5.27;;;;;;;;;;5030920;28;20186;-75
2022/03/05 11:32:21;;;;;;;6.80;4.67;;;;;;;;;;5047022;28;20185;-75
2022/03/05 11:34:47;;;;;;;7.77;5.23;;;;;;;;;;5029513;28;20255;-75
2022/03/05 11:37:17;;;;;;;7.23;4.20;;;;;;;;;;5051296;28;20178;-75
2022/03/05 11:39:42;;;;;;;10.27;6.83;;;;;;;;;;5035867;28;20299;-75
2022/03/05 11:42:09;;;;;;;10.30;8.40;;;;;;;;;;5032016;28;20277;-75
2022/03/05 11:44:41;;;;;;;10.17;7.80;;;;;;;;;;5033818;28;20166;-75
2022/03/05 11:47:18;;;;;;;7.03;4.10;;;;;;;;;;5032725;28;20205;-75
2022/03/05 11:50:13;;;;;;;10.43;6.53;;;;;;;;;;5056559;28;20178;-75
2022/03/05 11:52:38;;;;;;;8.97;6.17;;;;;;;;;;5042978;28;20201;-74
2022/03/05 11:55:20;;;;;;;8.20;5.70;;;;;;;;;;5032960;28;20166;-75
2022/03/05 11:57:51;;;;;;;8.87;6.93;;;;;;;;;;5028826;28;20185;-75
2022/03/05 12:00:26;;;;;;;9.67;5.83;;;;;;;;;;5049546;28;20174;-75
2022/03/05 12:02:54;;;;;;;7.50;5.80;;;;;;;;;;5050377;28;20173;-75
2022/03/05 12:05:38;;;;;;;10.70;5.87;;;;;;;;;;5032424;28;20189;-75
2022/03/05 12:08:03;;;;;;;9.80;6.67;;;;;;;;;;5053560;28;20229;-75
2022/03/05 12:10:29;;;;;;;8.17;6.10;;;;;;;;;;5031016;28;20170;-75
2022/03/05 12:12:54;;;;;;;7.97;4.90;;;;;;;;;;5034676;28;20181;-75
2022/03/05 12:15:24;;;;;;;10.00;7.17;;;;;;;;;;5030249;28;20205;-75
2022/03/05 12:17:51;;;;;;;9.07;6.60;;;;;;;;;;5032834;28;20215;-75
2022/03/05 12:20:18;;;;;;;9.73;6.13;;;;;;;;;;5031047;28;20182;-75
2022/03/05 12:22:47;;;;;;;10.37;6.47;;;;;;;;;;5024846;28;20171;-75
2022/03/05 12:25:12;;;;;;;9.47;6.70;;;;;;;;;;5032968;28;20675;-74
2022/03/05 12:27:43;;;;;;;10.63;6.83;;;;;;;;;;5033493;28;20269;-75
2022/03/05 12:30:09;;;;;;;12.73;7.70;;;;;;;;;;5033924;28;20228;-75
2022/03/05 12:32:35;;;;;;;10.67;7.67;;;;;;;;;;5053724;28;20178;-75
2022/03/05 12:35:04;;;;;;;6.50;5.03;;;;;;;;;;5036904;28;20216;-75
2022/03/05 12:37:30;;;;;;;9.17;6.07;;;;;;;;;;5036913;28;20190;-75
2022/03/05 12:39:56;;;;;;;10.90;7.27;;;;;;;;;;5045088;28;20170;-75
2022/03/05 12:42:21;;;;;;;9.23;5.83;;;;;;;;;;5042911;28;20185;-75
2022/03/05 12:44:47;;;;;;;13.13;7.77;;;;;;;;;;5033473;28;20180;-75
2022/03/05 12:47:12;;;;;;;7.07;5.57;;;;;;;;;;5036212;28;20205;-75
2022/03/05 12:49:38;;;;;;;6.30;4.03;;;;;;;;;;5032088;28;20182;-74
2022/03/05 12:52:05;;;;;;;6.90;3.53;;;;;;;;;;5037456;28;20174;-75
2022/03/05 12:54:30;;;;;;;6.93;4.73;;;;;;;;;;5030595;28;20183;-75
2022/03/05 12:56:56;;;;;;;11.70;7.80;;;;;;;;;;5049875;28;20306;-75
2022/03/05 12:59:21;;;;;;;11.60;8.03;;;;;;;;;;5031724;28;20298;-75
2022/03/05 13:01:46;;;;;;;11.33;7.00;;;;;;;;;;5032417;28;20270;-74
2022/03/05 13:04:13;;;;;;;11.90;7.80;;;;;;;;;;5046787;28;20193;-75
2022/03/05 13:06:38;;;;;;;9.40;6.90;;;;;;;;;;5031679;28;20183;-75
2022/03/05 13:09:03;;;;;;;11.73;6.67;;;;;;;;;;5035260;28;20236;-75
2022/03/05 13:11:29;;;;;;;9.23;5.40;;;;;;;;;;5033415;28;20192;-74
2022/03/05 13:13:58;;;;;;;14.13;8.50;;;;;;;;;;5031330;28;20182;-74
2022/03/05 13:16:23;;;;;;;11.53;7.70;;;;;;;;;;5049634;28;20187;-76
2022/03/05 13:18:56;;;;;;;9.67;7.03;;;;;;;;;;5049011;28;20213;-73
2022/03/05 13:21:21;;;;;;;12.17;7.70;;;;;;;;;;5039980;28;20184;-74
2022/03/05 13:23:46;;;;;;;6.70;4.67;;;;;;;;;;5026259;28;20252;-74
2022/03/05 13:26:11;;;;;;;8.90;5.90;;;;;;;;;;5045283;28;20188;-74
2022/03/05 13:28:37;;;;;;;9.47;6.97;;;;;;;;;;5030192;28;20183;-73
2022/03/05 13:31:03;;;;;;;9.80;7.00;;;;;;;;;;5028001;28;20187;-73
2022/03/05 13:33:34;;;;;;;10.07;6.90;;;;;;;;;;5041342;28;20186;-74
2022/03/05 13:36:08;;;;;;;13.50;7.83;;;;;;;;;;5046365;28;20179;-74
2022/03/05 13:38:34;;;;;;;4.33;2.97;;;;;;;;;;5026042;28;20251;-74
2022/03/05 13:41:02;;;;;;;10.57;7.33;;;;;;;;;;5044495;28;20175;-73
2022/03/05 13:43:28;;;;;;;12.07;6.63;;;;;;;;;;5050269;28;20181;-74
2022/03/05 13:45:53;;;;;;;14.93;7.70;;;;;;;;;;5033000;28;20178;-74
2022/03/05 13:48:18;;;;;;;9.23;6.63;;;;;;;;;;5048102;28;20210;-74
2022/03/05 13:50:44;;;;;;;10.33;6.43;;;;;;;;;;5048085;28;20270;-74
2022/03/05 13:53:09;;;;;;;10.87;7.23;;;;;;;;;;5027978;28;20272;-73
2022/03/05 13:55:34;;;;;;;9.60;6.17;;;;;;;;;;5044906;28;20273;-73
2022/03/05 13:58:00;;;;;;;11.97;7.17;;;;;;;;;;5033548;28;20216;-74
2022/03/05 14:00:26;;;;;;;10.50;8.00;;;;;;;;;;5050175;28;20239;-74
2022/03/05 14:02:51;;;;;;;8.87;5.90;;;;;;;;;;5033380;28;20183;-74
2022/03/05 14:05:43;;;;;;;11.07;7.23;;;;;;;;;;5035448;28;20213;-74
2022/03/05 14:08:09;;;;;;;13.60;7.80;;;;;;;;;;5028916;28;20586;-74
2022/03/05 14:10:34;;;;;;;10.37;7.47;;;;;;;;;;5048422;28;20187;-74
2022/03/05 14:12:59;;;;;;;10.23;6.57;;;;;;;;;;5048668;28;20175;-74
2022/03/05 14:15:26;;;;;;;11.20;7.40;;;;;;;;;;5052044;28;20195;-74
2022/03/05 14:18:03;;;;;;;10.17;7.23;;;;;;;;;;5054707;28;20543;-73
2022/03/05 14:20:29;;;;;;;11.93;7.93;;;;;;;;;;5033868;28;20188;-74
2022/03/05 14:22:55;;;;;;;10.30;7.43;;;;;;;;;;5050826;28;20184;-73
2022/03/05 14:25:21;;;;;;;16.87;11.77;;;;;;;;;;5055182;28;20176;-73
2022/03/05 14:27:47;;;;;;;11.90;7.40;;;;;;;;;;5046221;28;20177;-74
2022/03/05 14:30:12;;;;;;;9.93;6.23;;;;;;;;;;5049481;28;20203;-74
2022/03/05 14:32:37;;;;;;;9.33;7.23;;;;;;;;;;5047097;28;20258;-74
2022/03/05 14:35:04;;;;;;;10.17;7.07;;;;;;;;;;5029858;28;20238;-74